Time;durP1;ratioP1;P1;durP2;ratioP2;P2;SDS_P1;SDS_P2;PMS_P1;PMS_P2;Temp;Humidity;BMP_temperature;BMP_pressure;BME280_temperature;BME280_humidity;BME280_pressure;Samples;Min_cycle;Max_cycle;Signal;HPM_P1;HPM_P2
2021/10/18 00:01:58;;;;;;;12.30;7.60;;;5.40;99.90;;;;;;5143771;27;20440;-83
2021/10/18 00:04:24;;;;;;;10.10;7.77;;;5.40;99.90;;;;;;5145389;27;20179;-83
2021/10/18 00:06:49;;;;;;;13.50;8.27;;;5.30;99.90;;;;;;5144091;27;20543;-83
2021/10/18 00:09:15;;;;;;;9.87;7.37;;;5.30;99.90;;;;;;5144186;27;20199;-83
2021/10/18 00:11:41;;;;;;;11.97;7.47;;;5.30;99.90;;;;;;5143904;27;20175;-83
2021/10/18 00:14:07;;;;;;;10.50;8.33;;;5.30;99.90;;;;;;5145488;27;20175;-83
2021/10/18 00:16:36;;;;;;;12.53;7.90;;;5.30;99.90;;;;;;5145130;28;20179;-83
2021/10/18 00:19:02;;;;;;;9.20;7.20;;;5.30;99.90;;;;;;5146865;28;20444;-83
2021/10/18 00:21:29;;;;;;;10.50;8.03;;;5.30;99.90;;;;;;5144533;28;20447;-83
2021/10/18 00:23:54;;;;;;;10.70;8.30;;;5.30;99.90;;;;;;5147127;28;20442;-83
2021/10/18 00:26:20;;;;;;;9.97;7.50;;;5.10;99.90;;;;;;5150495;28;20440;-83
2021/10/18 00:28:46;;;;;;;9.57;7.27;;;5.20;99.90;;;;;;5157600;28;20167;-83
2021/10/18 00:31:12;;;;;;;10.83;7.67;;;5.10;99.90;;;;;;5156097;28;20175;-82
2021/10/18 00:33:37;;;;;;;11.63;7.40;;;5.10;99.90;;;;;;5151313;28;20206;-84
2021/10/18 00:36:04;;;;;;;11.53;7.93;;;5.10;99.90;;;;;;5145193;28;20186;-83
2021/10/18 00:38:29;;;;;;;12.13;8.13;;;5.10;99.90;;;;;;5142623;28;20183;-83
2021/10/18 00:40:55;;;;;;;12.17;7.07;;;5.10;99.90;;;;;;5142627;28;20531;-83
2021/10/18 00:43:21;;;;;;;12.70;7.80;;;5.10;99.90;;;;;;5144279;28;20171;-83
2021/10/18 00:45:46;;;;;;;11.63;7.43;;;5.10;99.90;;;;;;5142995;28;20186;-83
2021/10/18 00:48:12;;;;;;;9.43;7.13;;;5.10;99.90;;;;;;5144392;27;20205;-83
2021/10/18 00:50:38;;;;;;;11.00;7.40;;;5.10;99.90;;;;;;5146548;27;20203;-83
2021/10/18 00:53:04;;;;;;;11.37;7.43;;;5.10;99.90;;;;;;5147164;27;20183;-83
2021/10/18 00:55:30;;;;;;;10.60;7.00;;;5.10;99.90;;;;;;5147134;27;20175;-83
2021/10/18 00:57:56;;;;;;;11.63;7.30;;;;;;;;;;5147021;27;20411;-83
2021/10/18 01:00:22;;;;;;;10.20;7.50;;;5.10;99.90;;;;;;5146015;27;20456;-83
2021/10/18 01:02:48;;;;;;;12.13;7.57;;;5.10;99.90;;;;;;5146753;27;20435;-83
2021/10/18 01:05:14;;;;;;;10.93;7.70;;;5.10;99.90;;;;;;5146411;27;20175;-82
2021/10/18 01:07:41;;;;;;;13.67;8.30;;;5.10;99.90;;;;;;5146563;27;20171;-83
2021/10/18 01:10:07;;;;;;;11.40;7.20;;;5.00;99.90;;;;;;5147186;27;20416;-83
2021/10/18 01:12:33;;;;;;;9.33;7.33;;;5.00;99.90;;;;;;5146834;27;20404;-83
2021/10/18 01:14:58;;;;;;;12.20;7.50;;;5.00;99.90;;;;;;5145141;27;20174;-82
2021/10/18 01:17:24;;;;;;;10.53;6.50;;;5.00;99.90;;;;;;5145148;27;20628;-83
2021/10/18 01:19:50;;;;;;;9.57;7.20;;;;;;;;;;5145991;27;20190;-83
2021/10/18 01:22:16;;;;;;;9.00;6.83;;;5.00;99.90;;;;;;5144563;27;20171;-83
2021/10/18 01:24:41;;;;;;;10.47;6.97;;;5.00;99.90;;;;;;5144756;27;20448;-83
2021/10/18 01:27:07;;;;;;;9.20;7.17;;;;;;;;;;5144498;27;20175;-83
2021/10/18 01:29:35;;;;;;;12.00;7.57;;;5.00;99.90;;;;;;5144359;27;20220;-83
2021/10/18 01:32:03;;;;;;;9.97;6.93;;;5.00;99.90;;;;;;5144238;27;20432;-83
2021/10/18 01:34:29;;;;;;;9.63;6.80;;;5.00;99.90;;;;;;5144933;27;20393;-83
2021/10/18 01:36:57;;;;;;;11.83;7.67;;;5.00;99.90;;;;;;5143662;27;20417;-83
2021/10/18 01:39:23;;;;;;;10.47;7.30;;;5.00;99.90;;;;;;5146185;27;20195;-82
2021/10/18 01:41:48;;;;;;;6.90;5.63;;;5.00;99.90;;;;;;5145530;27;20480;-83
2021/10/18 01:44:14;;;;;;;8.70;6.63;;;5.00;99.90;;;;;;5142907;27;20171;-83
2021/10/18 01:46:41;;;;;;;8.33;6.93;;;5.10;99.90;;;;;;5143672;27;20162;-83
2021/10/18 01:49:07;;;;;;;10.40;7.30;;;5.00;99.90;;;;;;5139040;27;20273;-83
2021/10/18 01:51:33;;;;;;;9.27;6.87;;;5.00;99.90;;;;;;5139730;27;20440;-83
2021/10/18 01:53:59;;;;;;;8.90;7.27;;;5.00;99.90;;;;;;5144843;27;20439;-83
2021/10/18 01:56:25;;;;;;;9.13;6.77;;;5.00;99.90;;;;;;5147075;27;20400;-83
2021/10/18 01:58:50;;;;;;;8.50;6.73;;;5.00;99.90;;;;;;5146735;27;20224;-83
2021/10/18 02:01:16;;;;;;;8.10;6.33;;;;;;;;;;5147486;27;20616;-83
2021/10/18 02:03:42;;;;;;;9.23;6.70;;;4.90;99.90;;;;;;5149448;27;20271;-83
2021/10/18 02:06:11;;;;;;;8.67;7.17;;;4.90;99.90;;;;;;5150406;27;20224;-84
2021/10/18 02:08:40;;;;;;;9.30;6.53;;;4.80;99.90;;;;;;5149382;27;20341;-84
2021/10/18 02:11:06;;;;;;;9.20;5.97;;;4.90;99.90;;;;;;5148323;27;20428;-83
2021/10/18 02:13:32;;;;;;;9.07;6.67;;;4.90;99.90;;;;;;5147384;27;20412;-83
2021/10/18 02:15:58;;;;;;;7.30;6.13;;;4.90;99.90;;;;;;5147486;27;20419;-83
2021/10/18 02:18:23;;;;;;;10.80;6.23;;;4.90;99.90;;;;;;5147573;27;20499;-83
2021/10/18 02:20:50;;;;;;;9.57;6.53;;;4.90;99.90;;;;;;5146617;27;20207;-84
2021/10/18 02:23:16;;;;;;;8.20;6.17;;;;;;;;;;5147522;27;20175;-83
2021/10/18 02:25:42;;;;;;;9.63;7.00;;;4.90;99.90;;;;;;5146979;27;20453;-83
2021/10/18 02:28:08;;;;;;;9.10;6.47;;;;;;;;;;5146907;27;20408;-85
2021/10/18 02:30:34;;;;;;;8.67;6.67;;;4.90;99.90;;;;;;5146681;27;20198;-83
2021/10/18 02:32:59;;;;;;;8.20;6.63;;;4.90;99.90;;;;;;5148687;27;20435;-83
2021/10/18 02:35:25;;;;;;;9.13;6.83;;;4.90;99.90;;;;;;5155293;27;20166;-82
2021/10/18 02:37:51;;;;;;;8.80;6.67;;;4.90;99.90;;;;;;5153241;27;20186;-83
2021/10/18 02:40:17;;;;;;;9.37;6.23;;;4.90;99.90;;;;;;5150656;27;20206;-83
2021/10/18 02:42:43;;;;;;;10.47;7.40;;;;;;;;;;5147620;27;20175;-83
2021/10/18 02:45:10;;;;;;;6.83;5.53;;;4.90;99.90;;;;;;5146737;27;20205;-83
2021/10/18 02:47:36;;;;;;;9.40;7.03;;;4.90;99.90;;;;;;5146017;27;20416;-83
2021/10/18 02:50:03;;;;;;;9.70;6.93;;;4.90;99.90;;;;;;5148055;27;20433;-83
2021/10/18 02:52:28;;;;;;;9.93;7.33;;;4.90;99.90;;;;;;5147623;27;20426;-84
2021/10/18 02:54:54;;;;;;;11.50;7.53;;;;;;;;;;5147045;27;20416;-83
2021/10/18 02:57:21;;;;;;;11.73;8.50;;;4.90;99.90;;;;;;5148022;27;20182;-83
2021/10/18 02:59:47;;;;;;;12.73;8.97;;;4.90;99.90;;;;;;5148030;27;20199;-83
2021/10/18 03:02:12;;;;;;;10.93;8.47;;;5.00;99.90;;;;;;5147072;27;20423;-83
2021/10/18 03:04:38;;;;;;;9.50;7.03;;;5.00;99.90;;;;;;5148286;27;20179;-83
2021/10/18 03:07:04;;;;;;;8.80;6.57;;;5.00;99.90;;;;;;5154959;27;20502;-82
2021/10/18 03:09:29;;;;;;;8.23;6.47;;;5.00;99.90;;;;;;5156631;27;20222;-83
2021/10/18 03:11:55;;;;;;;19.33;13.17;;;5.00;99.90;;;;;;5156001;27;20178;-82
2021/10/18 03:14:21;;;;;;;12.70;9.83;;;4.90;99.90;;;;;;5156702;27;20265;-82
2021/10/18 03:16:47;;;;;;;18.97;14.17;;;;;;;;;;5150745;27;20175;-83
2021/10/18 03:19:12;;;;;;;12.33;8.90;;;4.80;99.90;;;;;;5145191;27;20206;-83
2021/10/18 03:21:38;;;;;;;13.27;9.33;;;4.80;99.90;;;;;;5146696;27;20205;-83
2021/10/18 03:24:04;;;;;;;12.17;8.60;;;4.80;99.90;;;;;;5146737;27;20167;-83
2021/10/18 03:26:29;;;;;;;12.73;6.83;;;4.70;99.90;;;;;;5145191;27;20183;-83
2021/10/18 03:28:55;;;;;;;12.50;9.23;;;;;;;;;;5146071;27;20571;-84
2021/10/18 03:31:21;;;;;;;16.50;9.93;;;4.50;99.90;;;;;;5145104;27;20186;-83
2021/10/18 03:33:47;;;;;;;12.40;9.13;;;4.50;99.90;;;;;;5144547;27;20436;-84
2021/10/18 03:36:12;;;;;;;13.33;8.57;;;4.50;99.90;;;;;;5146324;27;20170;-83
2021/10/18 03:38:38;;;;;;;8.37;6.10;;;4.40;99.90;;;;;;5145645;27;20175;-83
2021/10/18 03:41:05;;;;;;;12.00;8.40;;;4.40;99.90;;;;;;5144049;27;20278;-83
2021/10/18 03:43:30;;;;;;;12.13;9.00;;;4.50;99.90;;;;;;5146298;27;20167;-83
2021/10/18 03:45:56;;;;;;;11.80;8.57;;;4.50;99.90;;;;;;5144774;27;20479;-83
2021/10/18 03:48:22;;;;;;;15.87;9.07;;;4.40;99.90;;;;;;5144632;27;20675;-83
2021/10/18 03:50:48;;;;;;;8.07;6.63;;;4.50;99.90;;;;;;5144925;27;20198;-83
2021/10/18 03:53:13;;;;;;;7.13;6.17;;;4.40;99.90;;;;;;5146367;27;20245;-83
2021/10/18 03:55:39;;;;;;;11.77;5.43;;;4.50;99.90;;;;;;5144840;27;20699;-83
2021/10/18 03:58:05;;;;;;;7.87;5.83;;;4.50;99.90;;;;;;5145180;27;20183;-83
2021/10/18 04:00:31;;;;;;;6.80;4.80;;;4.50;99.90;;;;;;5144036;27;20211;-83
2021/10/18 04:02:57;;;;;;;5.00;4.17;;;4.50;99.90;;;;;;5147037;27;20199;-83
2021/10/18 04:05:22;;;;;;;9.30;5.53;;;4.50;99.90;;;;;;5144247;27;20182;-84
2021/10/18 04:07:48;;;;;;;9.20;5.20;;;4.50;99.90;;;;;;5145101;27;20199;-83
2021/10/18 04:10:17;;;;;;;7.03;5.30;;;4.50;99.90;;;;;;5143334;27;20229;-83
2021/10/18 04:12:43;;;;;;;6.33;5.27;;;4.50;99.90;;;;;;5146638;27;20426;-83
2021/10/18 04:15:10;;;;;;;8.53;5.27;;;4.40;99.90;;;;;;5143834;27;20416;-83
2021/10/18 04:17:35;;;;;;;9.80;5.70;;;4.30;99.90;;;;;;5144065;28;20189;-83
2021/10/18 04:20:02;;;;;;;6.30;5.37;;;4.30;99.90;;;;;;5144875;28;20206;-83
2021/10/18 04:22:28;;;;;;;10.73;5.67;;;4.30;99.90;;;;;;5144642;27;20182;-83
2021/10/18 04:24:53;;;;;;;7.97;5.80;;;4.20;99.90;;;;;;5149263;27;20189;-83
2021/10/18 04:27:19;;;;;;;6.73;5.33;;;4.20;99.90;;;;;;5149815;27;20270;-83
2021/10/18 04:29:45;;;;;;;8.53;6.37;;;4.20;99.90;;;;;;5149997;27;20286;-82
2021/10/18 04:32:10;;;;;;;6.17;5.50;;;4.20;99.90;;;;;;5152673;27;20729;-83
2021/10/18 04:34:36;;;;;;;7.77;5.60;;;4.20;99.90;;;;;;5149285;27;20178;-83
2021/10/18 04:37:02;;;;;;;6.60;5.43;;;4.20;99.90;;;;;;5149211;27;20175;-83
2021/10/18 04:39:27;;;;;;;7.77;5.80;;;4.10;99.90;;;;;;5155074;27;20266;-82
2021/10/18 04:41:53;;;;;;;9.83;7.57;;;4.10;99.90;;;;;;5160296;27;20235;-82
2021/10/18 04:44:19;;;;;;;9.47;6.37;;;4.10;99.90;;;;;;5159107;27;20179;-82
2021/10/18 04:46:45;;;;;;;8.47;6.67;;;4.00;99.90;;;;;;5150474;27;20261;-82
2021/10/18 04:49:10;;;;;;;9.83;6.83;;;4.00;99.90;;;;;;5141840;27;20195;-83
2021/10/18 04:51:36;;;;;;;10.17;7.70;;;4.00;99.90;;;;;;5139993;27;20242;-82
2021/10/18 04:54:02;;;;;;;16.30;7.13;;;4.00;99.90;;;;;;5139169;27;20183;-83
2021/10/18 04:56:28;;;;;;;9.97;6.50;;;4.00;99.90;;;;;;5139906;27;20230;-82
2021/10/18 04:58:54;;;;;;;8.97;5.67;;;4.00;99.90;;;;;;5138176;27;20223;-83
2021/10/18 05:01:20;;;;;;;9.10;7.10;;;3.90;99.90;;;;;;5142929;27;20223;-83
2021/10/18 05:03:46;;;;;;;9.43;6.60;;;4.00;99.90;;;;;;5146605;27;20159;-82
2021/10/18 05:06:12;;;;;;;9.03;6.07;;;4.00;99.90;;;;;;5145487;27;20401;-82
2021/10/18 05:08:37;;;;;;;11.90;6.50;;;3.90;99.90;;;;;;5146219;27;20171;-83
2021/10/18 05:11:03;;;;;;;10.27;7.27;;;3.90;99.90;;;;;;5145872;27;20570;-83
2021/10/18 05:13:29;;;;;;;10.87;6.90;;;3.90;99.90;;;;;;5147194;27;20222;-83
2021/10/18 05:15:55;;;;;;;11.57;7.20;;;3.90;99.90;;;;;;5145885;27;20232;-83
2021/10/18 05:18:21;;;;;;;8.87;6.90;;;3.80;99.90;;;;;;5145822;27;20175;-83
2021/10/18 05:20:49;;;;;;;9.53;6.23;;;3.90;99.90;;;;;;5147037;27;20233;-83
2021/10/18 05:23:15;;;;;;;13.73;6.60;;;3.80;99.90;;;;;;5148040;27;20397;-83
2021/10/18 05:25:40;;;;;;;10.83;6.53;;;3.90;99.90;;;;;;5147701;27;20406;-83
2021/10/18 05:28:06;;;;;;;8.73;6.13;;;3.70;99.90;;;;;;5145657;27;20471;-83
2021/10/18 05:30:32;;;;;;;10.43;6.03;;;3.70;99.90;;;;;;5147318;27;20235;-83
2021/10/18 05:32:59;;;;;;;8.83;5.67;;;;;;;;;;5146937;27;20265;-83
2021/10/18 05:35:25;;;;;;;7.73;6.03;;;3.60;99.90;;;;;;5147150;27;20400;-83
2021/10/18 05:37:52;;;;;;;7.70;5.83;;;3.60;99.90;;;;;;5145313;27;20534;-83
2021/10/18 05:40:20;;;;;;;9.63;7.03;;;3.50;99.90;;;;;;5146592;27;20456;-83
2021/10/18 05:42:46;;;;;;;11.40;7.13;;;3.50;99.90;;;;;;5146391;27;20400;-83
2021/10/18 05:45:13;;;;;;;11.10;6.53;;;3.50;99.90;;;;;;5146147;27;20412;-83
2021/10/18 05:47:56;;;;;;;17.40;8.17;;;3.40;99.90;;;;;;5146918;27;20516;-83
2021/10/18 05:50:23;;;;;;;18.77;7.97;;;3.50;99.90;;;;;;5147766;27;20424;-83
2021/10/18 05:52:49;;;;;;;16.77;9.33;;;3.50;99.90;;;;;;5146939;27;20408;-83
2021/10/18 05:55:15;;;;;;;12.53;7.40;;;3.50;99.90;;;;;;5146839;27;20411;-83
2021/10/18 05:57:50;;;;;;;14.93;7.73;;;3.50;99.90;;;;;;5147982;27;20186;-83
2021/10/18 06:00:16;;;;;;;11.20;7.07;;;3.50;99.90;;;;;;5147943;27;20294;-84
2021/10/18 06:02:42;;;;;;;16.30;6.97;;;3.50;99.90;;;;;;5153812;27;20408;-82
2021/10/18 06:05:08;;;;;;;12.03;7.03;;;3.60;99.90;;;;;;5157969;27;20415;-82
2021/10/18 06:07:34;;;;;;;10.53;6.83;;;;;;;;;;5157485;27;20583;-83
2021/10/18 06:10:00;;;;;;;12.17;6.57;;;3.40;99.90;;;;;;5149199;27;20821;-83
2021/10/18 06:12:26;;;;;;;8.77;5.67;;;3.30;99.90;;;;;;5145531;27;20417;-83
2021/10/18 06:14:51;;;;;;;9.77;6.37;;;3.50;99.90;;;;;;5145660;27;20174;-83
2021/10/18 06:17:17;;;;;;;8.60;5.67;;;3.40;99.90;;;;;;5145508;27;20269;-83
2021/10/18 06:19:43;;;;;;;7.50;5.33;;;3.50;99.90;;;;;;5145406;27;20197;-83
2021/10/18 06:22:08;;;;;;;8.33;5.70;;;3.50;99.90;;;;;;5145460;27;20269;-83
2021/10/18 06:24:34;;;;;;;8.63;5.73;;;3.60;99.90;;;;;;5148609;27;20237;-83
2021/10/18 06:27:00;;;;;;;9.07;5.87;;;;;;;;;;5149454;27;20174;-83
2021/10/18 06:29:27;;;;;;;8.27;5.43;;;3.70;99.90;;;;;;5152989;27;20195;-83
2021/10/18 06:31:52;;;;;;;8.23;5.47;;;3.70;99.90;;;;;;5146503;27;20191;-82
2021/10/18 06:34:18;;;;;;;7.20;4.90;;;3.80;99.90;;;;;;5144807;27;20416;-83
2021/10/18 06:36:44;;;;;;;6.10;4.87;;;3.80;99.90;;;;;;5145348;27;20190;-83
2021/10/18 06:39:10;;;;;;;8.10;5.03;;;;;;;;;;5145560;27;20194;-83
2021/10/18 06:41:35;;;;;;;6.43;4.70;;;3.90;99.90;;;;;;5146584;27;20207;-83
2021/10/18 06:44:01;;;;;;;7.97;5.17;;;4.00;99.90;;;;;;5153272;27;20655;-82
2021/10/18 06:46:26;;;;;;;7.40;5.13;;;4.00;99.90;;;;;;5155684;27;20175;-82
2021/10/18 06:48:52;;;;;;;6.03;4.80;;;4.20;99.90;;;;;;5157654;27;20199;-83
2021/10/18 06:51:18;;;;;;;5.70;4.33;;;4.20;99.90;;;;;;5147712;27;20212;-83
2021/10/18 06:53:46;;;;;;;7.13;4.93;;;;;;;;;;5148464;27;20174;-82
2021/10/18 06:56:12;;;;;;;9.10;5.20;;;4.50;99.90;;;;;;5144398;27;20202;-83
2021/10/18 06:58:38;;;;;;;6.20;4.20;;;4.70;99.90;;;;;;5143926;27;20783;-83
2021/10/18 07:01:03;;;;;;;6.23;4.70;;;4.70;99.90;;;;;;5142941;27;20210;-82
2021/10/18 07:03:29;;;;;;;9.33;4.63;;;;;;;;;;5144605;27;20260;-83
2021/10/18 07:05:55;;;;;;;5.70;4.70;;;4.80;99.90;;;;;;5144902;27;20166;-83
2021/10/18 07:08:21;;;;;;;7.77;4.70;;;4.90;99.90;;;;;;5142705;27;20451;-83
2021/10/18 07:10:47;;;;;;;11.17;4.90;;;4.90;99.90;;;;;;5143187;27;20672;-83
2021/10/18 07:13:12;;;;;;;5.73;4.17;;;4.90;99.90;;;;;;5145925;27;20171;-83
2021/10/18 07:15:39;;;;;;;5.30;4.23;;;5.00;99.90;;;;;;5142010;27;20179;-83
2021/10/18 07:18:08;;;;;;;6.57;3.83;;;5.10;99.90;;;;;;5143537;27;20182;-83
2021/10/18 07:20:33;;;;;;;6.97;4.63;;;5.30;99.90;;;;;;5144360;27;20211;-83
2021/10/18 07:23:01;;;;;;;5.57;4.27;;;5.50;99.90;;;;;;5144129;27;20397;-83
2021/10/18 07:25:27;;;;;;;6.23;4.37;;;5.60;99.90;;;;;;5140125;27;20171;-82
2021/10/18 07:27:53;;;;;;;8.57;4.50;;;5.70;99.90;;;;;;5142658;27;20803;-83
2021/10/18 07:30:19;;;;;;;5.03;4.10;;;5.90;99.90;;;;;;5141785;27;20194;-83
2021/10/18 07:32:45;;;;;;;5.57;4.07;;;6.10;99.90;;;;;;5139484;27;20708;-82
2021/10/18 07:35:13;;;;;;;5.73;3.90;;;6.30;99.90;;;;;;5139665;27;20175;-83
2021/10/18 07:37:40;;;;;;;5.33;4.13;;;6.40;99.90;;;;;;5140511;27;20185;-82
2021/10/18 07:40:07;;;;;;;9.77;4.30;;;6.50;99.90;;;;;;5139747;27;20551;-83
2021/10/18 07:42:33;;;;;;;7.03;4.07;;;6.70;99.90;;;;;;5140222;27;20233;-82
2021/10/18 07:44:58;;;;;;;4.27;3.60;;;6.90;99.90;;;;;;5139915;27;20569;-82
2021/10/18 07:47:25;;;;;;;7.37;4.10;;;7.50;99.90;;;;;;5139668;27;20642;-82
2021/10/18 07:49:52;;;;;;;6.50;4.03;;;8.00;99.90;;;;;;5140601;27;20540;-82
2021/10/18 07:52:18;;;;;;;5.67;4.47;;;8.60;99.90;;;;;;5138308;27;20170;-83
2021/10/18 07:54:46;;;;;;;8.87;5.73;;;8.80;99.90;;;;;;5138164;27;20186;-83
2021/10/18 07:57:14;;;;;;;15.37;10.27;;;8.90;99.90;;;;;;5137661;27;20264;-83
2021/10/18 07:59:40;;;;;;;14.10;7.47;;;8.80;99.90;;;;;;5138188;27;20236;-83
2021/10/18 08:02:06;;;;;;;6.67;3.93;;;9.00;99.90;;;;;;5134916;27;20299;-83
2021/10/18 08:04:31;;;;;;;7.17;3.90;;;9.60;99.90;;;;;;5134644;27;20221;-83
2021/10/18 08:06:57;;;;;;;7.93;3.93;;;10.10;99.90;;;;;;5139733;27;20170;-83
2021/10/18 08:09:25;;;;;;;14.30;6.20;;;10.90;99.90;;;;;;5141873;27;20193;-83
2021/10/18 08:11:51;;;;;;;11.10;4.80;;;11.50;99.90;;;;;;5142022;27;20212;-83
2021/10/18 08:14:17;;;;;;;5.27;3.03;;;12.30;99.90;;;;;;5141855;27;20171;-83
2021/10/18 08:16:43;;;;;;;5.83;2.80;;;12.60;99.90;;;;;;5142414;27;20693;-83
2021/10/18 08:19:09;;;;;;;4.17;2.70;;;12.90;99.90;;;;;;5142663;28;20199;-83
2021/10/18 08:21:35;;;;;;;6.80;2.93;;;13.20;99.90;;;;;;5144385;28;20209;-83
2021/10/18 08:24:00;;;;;;;4.37;2.70;;;13.30;99.90;;;;;;5143083;28;20238;-83
2021/10/18 08:26:26;;;;;;;4.87;3.00;;;13.10;99.90;;;;;;5144391;28;20171;-84
2021/10/18 08:28:52;;;;;;;6.07;2.90;;;13.20;99.90;;;;;;5145520;28;20202;-82
2021/10/18 08:31:17;;;;;;;6.50;3.77;;;13.40;99.90;;;;;;5144483;28;20182;-82
2021/10/18 08:33:43;;;;;;;8.47;3.47;;;13.70;99.90;;;;;;5146323;27;20195;-83
2021/10/18 08:36:09;;;;;;;5.60;3.40;;;13.90;99.90;;;;;;5144099;28;20239;-83
2021/10/18 08:38:47;;;;;;;5.23;3.43;;;14.10;99.90;;;;;;5146920;28;20177;-83
2021/10/18 08:41:23;;;;;;;6.43;3.83;;;14.50;99.90;;;;;;5149912;28;20184;-83
2021/10/18 08:46:22;;;;;;;4.90;3.47;;;15.10;99.90;;;;;;5155022;28;20184;-82
2021/10/18 08:48:52;;;;;;;4.53;3.30;;;15.10;99.90;;;;;;5153309;28;20176;-82
2021/10/18 08:51:18;;;;;;;4.50;3.47;;;15.30;99.90;;;;;;5155158;28;20178;-82
2021/10/18 08:53:45;;;;;;;5.77;3.27;;;15.30;99.90;;;;;;5154972;28;20212;-82
2021/10/18 08:56:11;;;;;;;3.57;3.13;;;15.50;99.90;;;;;;5154946;28;20281;-82
2021/10/18 08:58:36;;;;;;;4.23;3.80;;;15.60;99.90;;;;;;5154639;28;20261;-82
2021/10/18 09:01:02;;;;;;;4.57;3.50;;;15.80;99.90;;;;;;5154816;28;20216;-82
2021/10/18 09:03:32;;;;;;;3.73;2.77;;;16.10;99.90;;;;;;5154470;28;20250;-82
2021/10/18 09:06:13;;;;;;;3.53;3.23;;;16.50;99.90;;;;;;5142273;28;20243;-83
2021/10/18 09:08:44;;;;;;;3.13;2.83;;;16.50;99.90;;;;;;5143766;27;20190;-83
2021/10/18 09:11:24;;;;;;;3.70;2.80;;;16.30;99.90;;;;;;5147017;27;20232;-83
2021/10/18 09:13:53;;;;;;;9.07;3.80;;;16.10;99.90;;;;;;5147507;27;20213;-83
2021/10/18 09:16:31;;;;;;;5.57;3.40;;;16.10;99.90;;;;;;5148790;27;20175;-83
2021/10/18 09:19:10;;;;;;;3.70;3.20;;;16.50;99.90;;;;;;5148953;27;20202;-83
2021/10/18 09:21:48;;;;;;;7.80;3.30;;;17.10;99.90;;;;;;5148886;27;20229;-83
2021/10/18 09:24:40;;;;;;;6.30;3.80;;;17.30;99.90;;;;;;5145905;27;20185;-83
2021/10/18 09:27:16;;;;;;;6.43;3.47;;;17.70;99.90;;;;;;5146797;27;20171;-83
2021/10/18 09:29:45;;;;;;;4.27;3.50;;;17.80;99.90;;;;;;5147108;27;20200;-83
2021/10/18 09:32:17;;;;;;;4.27;3.70;;;17.90;99.90;;;;;;5146302;27;20248;-83
2021/10/18 09:34:42;;;;;;;6.80;4.23;;;17.80;99.90;;;;;;5146555;27;20190;-83
2021/10/18 09:37:14;;;;;;;6.00;4.30;;;17.90;99.90;;;;;;5147451;27;20180;-83
2021/10/18 09:39:44;;;;;;;12.17;4.90;;;18.00;99.90;;;;;;5146028;27;20200;-83
2021/10/18 09:42:15;;;;;;;5.80;4.20;;;17.80;99.90;;;;;;5147755;27;20271;-83
2021/10/18 10:52:54;;;;;;;6.10;4.10;;;21.20;98.30;;;;;;5149300;27;20222;-83
2021/10/18 10:55:22;;;;;;;6.53;3.80;;;21.20;97.80;;;;;;5068750;28;20168;-83
2021/10/18 10:57:52;;;;;;;10.13;4.40;;;20.90;98.50;;;;;;5143631;27;20243;-83
2021/10/18 11:00:37;;;;;;;7.97;4.10;;;21.10;99.70;;;;;;5154216;27;20199;-82
2021/10/18 11:03:23;;;;;;;6.30;4.00;;;21.10;99.90;;;;;;5142244;27;20200;-83
2021/10/18 11:06:04;;;;;;;4.50;4.07;;;21.50;97.90;;;;;;5137962;27;20168;-83
2021/10/18 11:08:32;;;;;;;11.13;4.53;;;22.00;97.30;;;;;;5145576;27;20182;-83
2021/10/18 11:11:10;;;;;;;7.57;3.97;;;22.10;97.30;;;;;;5147140;27;20435;-83
2021/10/18 11:13:43;;;;;;;6.03;4.93;;;22.30;96.10;;;;;;5145382;27;20183;-82
2021/10/18 11:16:09;;;;;;;6.57;4.40;;;22.40;96.50;;;;;;5147128;27;20197;-83
2021/10/18 11:18:34;;;;;;;5.03;4.40;;;22.30;95.90;;;;;;5144752;27;20541;-83
2021/10/18 11:21:14;;;;;;;8.30;4.57;;;22.50;94.90;;;;;;5146383;27;20550;-83
2021/10/18 11:24:13;;;;;;;9.20;4.87;;;22.00;94.50;;;;;;5144187;27;20201;-83
2021/10/18 11:26:40;;;;;;;7.50;5.43;;;21.60;94.00;;;;;;5110853;27;20197;-83
2021/10/18 11:29:11;;;;;;;7.30;4.13;;;21.30;95.00;;;;;;5146774;27;20747;-83
2021/10/18 11:31:40;;;;;;;9.10;5.03;;;21.40;96.20;;;;;;5146429;27;20191;-83
2021/10/18 11:34:10;;;;;;;7.83;3.83;;;21.30;94.40;;;;;;5146535;27;20510;-83
2021/10/18 11:36:39;;;;;;;8.93;4.50;;;22.10;95.60;;;;;;5145539;27;20175;-83
2021/10/18 11:39:10;;;;;;;7.83;4.93;;;22.50;92.50;;;;;;5145487;27;20585;-83
2021/10/18 11:41:58;;;;;;;5.33;3.80;;;22.40;92.20;;;;;;5145698;27;20202;-83
2021/10/18 11:44:55;;;;;;;5.97;4.13;;;22.20;95.00;;;;;;5147478;27;20174;-83
2021/10/18 11:47:27;;;;;;;6.00;4.27;;;23.10;93.70;;;;;;5147765;27;20201;-83
2021/10/18 11:50:17;;;;;;;5.07;4.57;;;23.60;91.30;;;;;;5147672;27;20243;-85
2021/10/18 11:52:53;;;;;;;5.30;4.80;;;23.20;92.30;;;;;;5147398;27;20178;-83
2021/10/18 11:55:30;;;;;;;6.13;4.50;;;23.50;91.20;;;;;;5147509;27;20163;-83
2021/10/18 11:58:03;;;;;;;5.80;4.77;;;23.80;91.40;;;;;;5146622;27;20257;-83
2021/10/18 12:00:43;;;;;;;7.17;4.40;;;23.70;90.10;;;;;;5145917;27;20179;-83
2021/10/18 12:03:17;;;;;;;6.53;4.80;;;23.50;90.00;;;;;;5145255;27;20171;-83
2021/10/18 12:05:44;;;;;;;5.80;5.07;;;24.10;90.00;;;;;;5145045;27;20175;-83
2021/10/18 12:08:12;;;;;;;6.30;5.13;;;24.40;88.70;;;;;;5146700;27;20236;-83
2021/10/18 12:10:38;;;;;;;5.47;4.93;;;24.40;86.90;;;;;;5144186;27;20236;-83
2021/10/18 12:13:16;;;;;;;6.07;4.70;;;24.40;86.70;;;;;;5144949;27;20172;-83
2021/10/18 12:15:55;;;;;;;6.47;4.60;;;24.70;88.60;;;;;;5145044;27;20234;-83
2021/10/18 12:18:24;;;;;;;5.60;5.10;;;24.90;88.80;;;;;;5145363;27;20168;-83
2021/10/18 12:20:53;;;;;;;4.77;4.37;;;24.00;86.60;;;;;;5146442;28;20216;-84
2021/10/18 12:23:24;;;;;;;4.63;4.23;;;24.20;88.20;;;;;;5146366;28;20179;-83
2021/10/18 12:25:58;;;;;;;5.57;4.77;;;25.00;84.60;;;;;;5144959;28;20177;-83
2021/10/18 12:28:48;;;;;;;5.77;5.20;;;25.20;84.00;;;;;;5145934;28;20178;-83
2021/10/18 12:31:50;;;;;;;8.07;5.03;;;24.60;85.00;;;;;;5147368;28;20254;-83
2021/10/18 12:34:19;;;;;;;6.87;4.97;;;24.70;83.70;;;;;;5145523;28;20180;-83
2021/10/18 12:37:08;;;;;;;6.33;5.33;;;25.10;82.60;;;;;;5145962;28;20184;-83
2021/10/18 12:39:53;;;;;;;6.77;5.60;;;25.30;80.80;;;;;;5145162;28;20193;-83
2021/10/18 12:42:25;;;;;;;7.33;5.90;;;25.50;81.10;;;;;;5146804;27;20259;-83
2021/10/18 12:45:03;;;;;;;6.10;5.50;;;26.10;80.40;;;;;;5149202;27;20159;-83
2021/10/18 12:47:29;;;;;;;5.33;4.87;;;26.20;80.40;;;;;;5149200;27;20198;-84
2021/10/18 12:50:06;;;;;;;5.60;5.00;;;26.70;74.60;;;;;;5149939;27;20724;-82
2021/10/18 12:52:33;;;;;;;5.33;4.83;;;26.70;73.70;;;;;;5149814;27;20199;-82
2021/10/18 12:55:09;;;;;;;6.37;5.40;;;26.30;75.90;;;;;;5149598;27;20219;-82
2021/10/18 12:57:35;;;;;;;6.33;5.30;;;26.30;75.70;;;;;;5149974;27;20172;-82
2021/10/18 13:00:11;;;;;;;6.90;5.23;;;26.70;73.40;;;;;;5149125;27;20201;-82
2021/10/18 13:02:39;;;;;;;5.03;4.53;;;27.50;71.80;;;;;;5149321;27;20182;-82
2021/10/18 13:05:18;;;;;;;6.27;5.43;;;27.60;70.40;;;;;;5150019;27;20167;-82
2021/10/18 13:07:45;;;;;;;11.67;5.17;;;27.80;69.70;;;;;;5153850;27;20174;-81
2021/10/18 13:10:13;;;;;;;5.97;5.17;;;27.70;68.60;;;;;;5156001;27;20195;-81
2021/10/18 13:12:40;;;;;;;5.03;4.53;;;26.90;69.80;;;;;;5153699;27;20182;-82
2021/10/18 13:15:07;;;;;;;5.07;4.57;;;26.50;71.20;;;;;;5150160;27;20167;-82
2021/10/18 13:17:33;;;;;;;6.63;4.60;;;26.50;69.10;;;;;;5148668;27;20174;-82
2021/10/18 13:19:59;;;;;;;5.40;4.47;;;26.50;69.30;;;;;;5148399;27;20222;-82
2021/10/18 13:22:25;;;;;;;5.17;4.63;;;26.80;69.80;;;;;;5149954;27;20174;-82
2021/10/18 13:24:51;;;;;;;6.13;4.80;;;26.90;68.30;;;;;;5147026;27;20205;-82
2021/10/18 13:27:18;;;;;;;7.67;4.53;;;26.60;69.50;;;;;;5144786;27;20169;-82
2021/10/18 13:29:44;;;;;;;5.93;4.33;;;27.10;68.50;;;;;;5143791;27;20749;-82
2021/10/18 13:32:11;;;;;;;5.23;4.40;;;26.40;68.60;;;;;;5144468;27;20292;-82
2021/10/18 13:34:37;;;;;;;5.87;4.20;;;26.40;67.90;;;;;;5142953;27;20229;-81
2021/10/18 13:37:03;;;;;;;4.30;3.90;;;25.70;69.30;;;;;;5142225;27;20183;-81
2021/10/18 13:39:29;;;;;;;7.63;4.50;;;25.90;69.30;;;;;;5139287;27;20203;-82
2021/10/18 13:41:55;;;;;;;4.93;4.50;;;26.50;69.60;;;;;;5139827;27;20200;-82
2021/10/18 13:44:21;;;;;;;5.60;4.70;;;27.20;69.00;;;;;;5141972;27;20645;-82
2021/10/18 13:46:47;;;;;;;6.10;4.43;;;27.20;67.20;;;;;;5142018;27;20182;-82
2021/10/18 13:49:13;;;;;;;6.03;4.40;;;26.30;66.40;;;;;;5141635;27;20207;-82
2021/10/18 13:51:40;;;;;;;5.47;4.37;;;24.60;70.60;;;;;;5141710;27;20203;-82
2021/10/18 13:54:07;;;;;;;7.00;4.80;;;21.90;76.00;;;;;;5142334;27;20201;-81
2021/10/18 13:56:34;;;;;;;7.07;4.80;;;20.60;80.00;;;;;;5140747;27;20241;-77
2021/10/18 13:58:59;;;;;;;6.87;4.90;;;19.70;83.40;;;;;;5139985;27;20182;-78
2021/10/18 14:01:25;;;;;;;6.83;5.07;;;18.60;85.90;;;;;;5140223;27;20181;-79
2021/10/18 14:03:50;;;;;;;11.00;5.50;;;17.80;91.00;;;;;;5138525;27;20167;-81
2021/10/18 14:06:16;;;;;;;5.70;5.10;;;17.30;90.80;;;;;;5137967;27;20563;-81
2021/10/18 14:08:42;;;;;;;9.23;5.47;;;16.90;92.30;;;;;;5138921;27;20658;-80
2021/10/18 14:11:07;;;;;;;5.63;5.03;;;16.70;92.30;;;;;;5143948;27;20698;-83